createdAt,value
2022-11-13T00:00:57.911Z,50.37
2022-11-13T00:06:01.661Z,50.79
2022-11-13T00:11:06.968Z,50.67
2022-11-13T00:16:15.747Z,50.44
2022-11-13T00:21:21.199Z,50.10
2022-11-13T00:26:26.542Z,50.72
2022-11-13T00:31:31.452Z,49.91
2022-11-13T00:36:34.762Z,49.83
2022-11-13T00:41:38.316Z,49.48
2022-11-13T00:46:43.312Z,49.57
2022-11-13T00:51:46.545Z,49.64
2022-11-13T00:56:49.921Z,49.35
2022-11-13T01:01:54.713Z,49.14
2022-11-13T01:06:58.209Z,49.58
2022-11-13T01:12:01.568Z,49.58
2022-11-13T01:17:06.516Z,48.75
2022-11-13T01:22:10.169Z,49.03
2022-11-13T01:27:15.800Z,49.04
2022-11-13T01:32:20.809Z,48.76
2022-11-13T01:37:24.617Z,49.44
2022-11-13T01:42:28.079Z,49.85
2022-11-13T01:47:33.089Z,49.65
2022-11-13T01:52:40.192Z,49.51
2022-11-13T01:57:43.586Z,49.24
2022-11-13T02:02:48.454Z,49.02
2022-11-13T02:07:52.104Z,48.83
2022-11-13T02:12:55.592Z,48.83
2022-11-13T02:18:02.328Z,48.23
2022-11-13T02:23:15.988Z,48.44
2022-11-13T02:28:20.731Z,49.15
2022-11-13T02:33:25.205Z,49.34
2022-11-13T02:38:28.955Z,49.71
2022-11-13T02:43:33.941Z,50.10
2022-11-13T02:48:37.087Z,50.28
2022-11-13T02:53:40.334Z,50.78
2022-11-13T02:58:45.105Z,51.80
2022-11-13T03:03:57.429Z,52.23
2022-11-13T03:09:01.664Z,52.01
2022-11-13T03:14:06.400Z,51.89
2022-11-13T03:19:10.200Z,51.93
2022-11-13T03:24:13.573Z,51.51
2022-11-13T03:29:18.328Z,50.55
2022-11-13T03:34:21.536Z,49.28
2022-11-13T03:39:24.901Z,49.39
2022-11-13T03:44:29.643Z,49.11
2022-11-13T03:49:33.049Z,49.38
2022-11-13T03:54:36.331Z,49.66
2022-11-13T03:59:41.202Z,49.56
2022-11-13T04:04:44.875Z,49.77
2022-11-13T04:09:48.260Z,49.27
2022-11-13T04:14:53.161Z,49.58
2022-11-13T04:19:56.436Z,49.37
2022-11-13T04:24:59.832Z,50.02
2022-11-13T04:30:05.667Z,50.29
2022-11-13T04:35:09.992Z,51.33
2022-11-13T04:40:13.686Z,50.55
2022-11-13T04:45:19.628Z,50.93
2022-11-13T04:50:23.490Z,50.84
2022-11-13T04:55:27.017Z,51.22
2022-11-13T05:00:31.693Z,52.16
2022-11-13T05:05:34.908Z,53.46
2022-11-13T05:10:38.588Z,53.96
2022-11-13T05:15:43.414Z,53.37
2022-11-13T05:20:46.389Z,53.25
2022-11-13T05:25:49.667Z,53.64
2022-11-13T05:30:54.724Z,52.41
2022-11-13T05:36:02.664Z,52.74
2022-11-13T05:41:07.894Z,52.87
2022-11-13T05:46:14.729Z,55.72
2022-11-13T05:51:19.858Z,57.86
2022-11-13T05:56:24.973Z,59.79
2022-11-13T06:01:32.443Z,60.15
2022-11-13T06:06:36.320Z,54.42
2022-11-13T06:11:39.608Z,53.36
2022-11-13T06:16:44.301Z,54.32
2022-11-13T06:21:47.904Z,56.30
2022-11-13T06:26:51.376Z,56.10
2022-11-13T06:31:56.144Z,53.79
2022-11-13T06:37:01.290Z,52.16
2022-11-13T06:42:05.491Z,43.24
2022-11-13T06:47:10.349Z,40.69
2022-11-13T06:52:13.998Z,39.47
2022-11-13T06:57:17.411Z,36.12
2022-11-13T07:02:22.010Z,30.49
2022-11-13T07:07:25.103Z,29.06
2022-11-13T07:12:30.060Z,25.66
2022-11-13T07:17:35.010Z,25.16
2022-11-13T07:22:38.397Z,25.34
2022-11-13T07:27:46.304Z,23.09
2022-11-13T07:32:51.044Z,24.47
2022-11-13T07:37:57.103Z,25.58
2022-11-13T07:43:01.276Z,24.87
2022-11-13T07:48:06.422Z,24.12
2022-11-13T07:53:11.265Z,23.05
2022-11-13T07:58:15.114Z,23.02
2022-11-13T08:03:19.941Z,23.48
2022-11-13T08:08:23.512Z,23.19
2022-11-13T08:13:26.891Z,23.13
2022-11-13T08:18:32.923Z,25.31
2022-11-13T08:23:36.202Z,25.26
2022-11-13T08:28:39.729Z,28.74
2022-11-13T08:33:44.992Z,30.44
2022-11-13T08:38:50.049Z,31.48
2022-11-13T08:43:53.337Z,33.86
2022-11-13T08:48:57.989Z,36.67
2022-11-13T08:54:01.015Z,37.56
2022-11-13T08:59:04.539Z,39.36
2022-11-13T09:04:09.357Z,40.52
2022-11-13T09:09:12.842Z,41.46
2022-11-13T09:14:17.361Z,41.95
2022-11-13T09:19:22.863Z,42.73
2022-11-13T09:24:26.228Z,43.65
2022-11-13T09:29:29.768Z,43.74
2022-11-13T09:34:34.665Z,44.10
2022-11-13T09:39:38.209Z,44.88
2022-11-13T09:44:46.418Z,44.31
2022-11-13T09:49:56.367Z,44.81
2022-11-13T09:55:00.050Z,44.92
2022-11-13T10:00:06.704Z,48.37
2022-11-13T10:05:16.158Z,51.45
2022-11-13T10:10:37.994Z,51.48
2022-11-13T10:15:44.805Z,53.85
2022-11-13T10:20:54.427Z,53.19
2022-11-13T10:26:01.659Z,53.56
2022-11-13T10:31:05.028Z,54.22
2022-11-13T10:36:22.456Z,55.21
2022-11-13T10:41:25.806Z,54.94
2022-11-13T10:46:31.334Z,54.50
2022-11-13T10:51:36.719Z,54.48
2022-11-13T10:56:40.330Z,53.71
2022-11-13T11:01:45.948Z,53.73
2022-11-13T11:07:19.669Z,52.39
2022-11-13T11:12:19.087Z,52.23
2022-11-13T11:17:25.764Z,51.38
2022-11-13T11:22:34.598Z,52.83
2022-11-13T11:27:42.739Z,53.68
2022-11-13T11:32:51.499Z,54.34
2022-11-13T11:38:04.574Z,54.09
2022-11-13T11:43:18.847Z,53.93
2022-11-13T11:48:27.597Z,53.38
2022-11-13T11:53:39.765Z,53.64
2022-11-13T11:59:02.799Z,53.44
2022-11-13T12:04:16.454Z,52.67
2022-11-13T12:09:27.974Z,52.19
2022-11-13T12:14:45.131Z,51.87
2022-11-13T12:19:55.670Z,52.08
2022-11-13T12:25:15.400Z,52.85
2022-11-13T12:30:22.527Z,53.13
2022-11-13T12:35:28.193Z,52.99
2022-11-13T12:40:44.008Z,54.30
2022-11-13T12:45:52.757Z,54.39
2022-11-13T12:51:01.606Z,54.84
2022-11-13T12:56:07.059Z,54.44
2022-11-13T13:01:18.842Z,54.75
2022-11-13T13:06:39.905Z,54.69
2022-11-13T13:11:55.140Z,55.21
2022-11-13T13:17:07.157Z,54.09
2022-11-13T13:22:11.750Z,54.74
2022-11-13T13:27:27.699Z,55.13
2022-11-13T13:32:44.207Z,55.29
2022-11-13T13:37:57.684Z,56.65
2022-11-13T13:43:24.772Z,56.42
2022-11-13T13:48:32.067Z,57.08
2022-11-13T13:53:37.624Z,57.59
2022-11-13T13:58:42.541Z,56.58
2022-11-13T14:03:45.667Z,55.67
2022-11-13T14:08:49.747Z,56.03
2022-11-13T14:13:54.565Z,55.59
2022-11-13T14:19:05.193Z,55.08
2022-11-13T14:24:15.451Z,55.83
2022-11-13T14:29:36.660Z,55.60
2022-11-13T14:34:44.207Z,56.38
2022-11-13T14:39:49.955Z,56.29
2022-11-13T14:44:54.728Z,55.71
2022-11-13T14:50:20.177Z,56.17
2022-11-13T14:55:25.682Z,56.08
2022-11-13T15:00:33.301Z,55.12
2022-11-13T15:05:36.698Z,54.91
2022-11-13T15:10:40.096Z,55.51
2022-11-13T15:15:46.566Z,55.82
2022-11-13T15:20:50.334Z,56.62
2022-11-13T15:25:53.614Z,56.18
2022-11-13T15:30:58.972Z,57.28
2022-11-13T15:36:02.583Z,57.47
2022-11-13T15:41:13.369Z,58.27
2022-11-13T15:46:22.132Z,57.83
2022-11-13T15:51:35.272Z,57.79
2022-11-13T15:56:38.833Z,57.62
2022-11-13T16:01:43.989Z,57.23
2022-11-13T16:06:47.565Z,57.50
2022-11-13T16:11:53.274Z,57.06
2022-11-13T16:16:58.145Z,57.28
2022-11-13T16:22:01.378Z,57.47
2022-11-13T16:27:05.115Z,57.44
2022-11-13T16:32:15.844Z,57.25
2022-11-13T16:37:20.958Z,57.52
2022-11-13T16:42:29.787Z,57.62
2022-11-13T16:47:35.595Z,56.50
2022-11-13T16:52:39.048Z,56.73
2022-11-13T16:57:43.245Z,56.40
2022-11-13T17:02:51.059Z,55.92
2022-11-13T17:07:58.893Z,55.21
2022-11-13T17:13:02.447Z,54.83
2022-11-13T17:18:07.517Z,54.98
2022-11-13T17:23:15.770Z,55.72
2022-11-13T17:28:19.322Z,56.48
2022-11-13T17:33:23.981Z,56.55
2022-11-13T17:38:27.720Z,56.66
2022-11-13T17:43:31.459Z,57.34
2022-11-13T17:48:37.370Z,57.06
2022-11-13T17:53:40.757Z,56.84
2022-11-13T17:58:45.982Z,56.88
2022-11-13T18:03:56.023Z,56.64
2022-11-13T18:08:59.298Z,56.91
2022-11-13T18:14:03.006Z,57.46
2022-11-13T18:19:09.681Z,57.74
2022-11-13T18:24:17.860Z,58.26
2022-11-13T18:29:22.094Z,58.09
2022-11-13T18:34:28.566Z,59.03
2022-11-13T18:39:32.045Z,59.18
2022-11-13T18:44:35.746Z,58.82
2022-11-13T18:49:40.464Z,59.17
2022-11-13T18:54:43.715Z,59.82
2022-11-13T18:59:47.238Z,60.30
2022-11-13T19:04:52.051Z,59.86
2022-11-13T19:09:57.193Z,60.44
2022-11-13T19:15:00.567Z,60.88
2022-11-13T19:20:06.214Z,61.25
2022-11-13T19:25:10.064Z,61.13
2022-11-13T19:30:14.115Z,62.26
2022-11-13T19:35:18.943Z,61.82
2022-11-13T19:40:22.197Z,61.11
2022-11-13T19:45:25.490Z,61.73
2022-11-13T19:50:30.158Z,62.08
2022-11-13T19:55:35.005Z,61.67
2022-11-13T20:00:38.331Z,61.86
2022-11-13T20:05:43.392Z,61.64
2022-11-13T20:10:46.741Z,61.13
2022-11-13T20:15:54.790Z,61.57
2022-11-13T20:21:00.033Z,61.02
2022-11-13T20:26:06.810Z,61.17
2022-11-13T20:31:19.942Z,61.64
2022-11-13T20:36:25.422Z,61.53
2022-11-13T20:41:28.795Z,61.39
2022-11-13T20:46:32.648Z,61.41
2022-11-13T20:51:37.308Z,61.24
2022-11-13T20:56:40.743Z,61.18
2022-11-13T21:01:44.286Z,61.00
2022-11-13T21:06:49.231Z,61.24
2022-11-13T21:11:52.690Z,60.99
2022-11-13T21:16:56.305Z,60.34
2022-11-13T21:22:01.346Z,60.66
2022-11-13T21:27:04.709Z,60.69
2022-11-13T21:32:08.264Z,59.95
2022-11-13T21:37:14.596Z,60.17
2022-11-13T21:42:18.027Z,61.08
2022-11-13T21:47:21.522Z,60.89
2022-11-13T21:52:26.177Z,61.67
2022-11-13T21:57:29.557Z,62.03
2022-11-13T22:02:32.863Z,63.49
2022-11-13T22:07:37.546Z,62.92
2022-11-13T22:12:40.937Z,62.63
2022-11-13T22:17:44.197Z,62.48
2022-11-13T22:22:48.966Z,62.97
2022-11-13T22:27:52.414Z,63.02
2022-11-13T22:32:55.753Z,62.79
2022-11-13T22:38:00.800Z,63.38
2022-11-13T22:43:04.158Z,62.83
2022-11-13T22:48:07.566Z,62.26
2022-11-13T22:53:14.868Z,62.37
2022-11-13T22:58:18.511Z,61.74
2022-11-13T23:03:21.918Z,61.52
2022-11-13T23:08:27.128Z,60.79
2022-11-13T23:13:30.584Z,60.74
2022-11-13T23:18:34.439Z,60.75
2022-11-13T23:23:39.190Z,60.20
2022-11-13T23:28:42.590Z,60.35
2022-11-13T23:33:46.161Z,60.30
2022-11-13T23:38:51.421Z,60.24
2022-11-13T23:44:08.251Z,61.25
2022-11-13T23:49:12.850Z,61.28
2022-11-13T23:54:17.657Z,61.49
2022-11-13T23:59:20.956Z,62.01
